CheckWX is a tool to help pilots better visualize weather data.  It is not intended as a substitute for an official pre-flight weather briefing.

04:45:09 UTC

KCHA TAF
Lovell Field Airport
Chattanooga, Tennessee, USA
KCHA 222331Z 2300/2324 VRB04KT P6SM VCTS SCT045CB FM230300 VRB03KT P6SM VCSH SCT100 PROB30 2309/2315 4SM -SHRA BKN100 FM231600 VRB04KT P6SM SCT035 PROB30 2316/2318 4SM -SHRA BKN035 FM231800 VRB04KT 6SM -SHRA BKN040 PROB30 2318/2324 4SM TSRA OVC025CB

Aug-23@
00:00 UTC

Aug-23 @ 00:00 UTC

Aug-23@
03:00 UTC

Aug-23 @ 03:00 UTC

KCHA 222331Z 2300/2324 VRB04KT P6SM VCTS SCT045CB

Expired

Wind
  • Variable at 4 KTS
Conditions
Area Thunderstorm
Cloud Levels
  • Scattered at 4,500' AGL

Aug-23@
03:00 UTC

Aug-23 @ 03:00 UTC

Aug-23@
16:00 UTC

Aug-23 @ 16:00 UTC

FM230300 VRB03KT P6SM VCSH SCT100

From

From Standard forecast or significant change

Wind
  • Variable at 3 KTS
Cloud Levels
  • Scattered at 10,000' AGL

Aug-23@
09:00 UTC

Aug-23 @ 09:00 UTC

Aug-23@
15:00 UTC

Aug-23 @ 15:00 UTC

PROB30 2309/2315 4SM -SHRA BKN100

Probable - 30% Likelihood

Probable - 30% Likelihood during this time.

Conditions
Light Rain
Cloud Levels
  • Broken at 10,000' AGL

Aug-23@
16:00 UTC

Aug-23 @ 16:00 UTC

Aug-23@
18:00 UTC

Aug-23 @ 18:00 UTC

FM231600 VRB04KT P6SM SCT035

From

From Standard forecast or significant change

Wind
  • Variable at 4 KTS
Cloud Levels
  • Scattered at 3,500' AGL

Aug-23@
16:00 UTC

Aug-23 @ 16:00 UTC

Aug-23@
18:00 UTC

Aug-23 @ 18:00 UTC

PROB30 2316/2318 4SM -SHRA BKN035

Probable - 30% Likelihood

Probable - 30% Likelihood during this time.

Conditions
Light Rain
Cloud Levels
  • Broken at 3,500' AGL

Aug-23@
18:00 UTC

Aug-23 @ 18:00 UTC

Aug-24@
00:00 UTC

Aug-24 @ 00:00 UTC

PROB30 2318/2324 4SM TSRA OVC025CB

Probable - 30% Likelihood

Probable - 30% Likelihood during this time.

Conditions
Thunderstorm, Rain
Cloud Levels
  • Overcast at 2,500' AGL

Aug-23@
18:00 UTC

Aug-23 @ 18:00 UTC

Aug-24@
00:00 UTC

Aug-24 @ 00:00 UTC

FM231800 VRB04KT 6SM -SHRA BKN040

From

From Standard forecast or significant change

Wind
  • Variable at 4 KTS
Conditions
Light Rain
Cloud Levels
  • Broken at 4,000' AGL